sensor_id;sensor_type;location;lat;lon;timestamp;P1;durP1;ratioP1;P2;durP2;ratioP2
12597;SDS011;6364;53.590;9.956;2023-03-14T00:01:44;7.05;;;2.97;;
12597;SDS011;6364;53.590;9.956;2023-03-14T00:04:10;5.78;;;3.10;;
12597;SDS011;6364;53.590;9.956;2023-03-14T00:06:35;6.65;;;3.03;;
12597;SDS011;6364;53.590;9.956;2023-03-14T00:09:00;6.60;;;3.08;;
12597;SDS011;6364;53.590;9.956;2023-03-14T00:11:25;6.07;;;2.97;;
12597;SDS011;6364;53.590;9.956;2023-03-14T00:13:51;12.48;;;4.22;;
12597;SDS011;6364;53.590;9.956;2023-03-14T00:16:17;7.35;;;3.60;;
12597;SDS011;6364;53.590;9.956;2023-03-14T00:18:43;9.10;;;3.35;;
12597;SDS011;6364;53.590;9.956;2023-03-14T00:21:08;9.18;;;3.42;;
12597;SDS011;6364;53.590;9.956;2023-03-14T00:23:35;9.75;;;3.47;;
12597;SDS011;6364;53.590;9.956;2023-03-14T00:26:03;8.95;;;3.90;;
12597;SDS011;6364;53.590;9.956;2023-03-14T00:28:29;7.95;;;3.50;;
12597;SDS011;6364;53.590;9.956;2023-03-14T00:30:55;6.03;;;2.97;;
12597;SDS011;6364;53.590;9.956;2023-03-14T00:33:20;12.25;;;3.42;;
12597;SDS011;6364;53.590;9.956;2023-03-14T00:35:55;11.15;;;3.20;;
12597;SDS011;6364;53.590;9.956;2023-03-14T00:38:22;8.77;;;3.20;;
12597;SDS011;6364;53.590;9.956;2023-03-14T00:40:47;9.13;;;3.30;;
12597;SDS011;6364;53.590;9.956;2023-03-14T00:43:13;9.57;;;2.90;;
12597;SDS011;6364;53.590;9.956;2023-03-14T00:45:38;13.07;;;3.25;;
12597;SDS011;6364;53.590;9.956;2023-03-14T00:48:03;8.60;;;3.03;;
12597;SDS011;6364;53.590;9.956;2023-03-14T00:50:29;8.25;;;2.78;;
12597;SDS011;6364;53.590;9.956;2023-03-14T00:52:54;9.50;;;3.22;;
12597;SDS011;6364;53.590;9.956;2023-03-14T00:55:20;9.40;;;3.30;;
12597;SDS011;6364;53.590;9.956;2023-03-14T00:57:45;10.02;;;3.35;;
12597;SDS011;6364;53.590;9.956;2023-03-14T01:00:11;11.30;;;3.58;;
12597;SDS011;6364;53.590;9.956;2023-03-14T01:02:37;11.05;;;3.13;;
12597;SDS011;6364;53.590;9.956;2023-03-14T01:05:03;14.60;;;3.30;;
12597;SDS011;6364;53.590;9.956;2023-03-14T01:07:29;14.88;;;3.63;;
12597;SDS011;6364;53.590;9.956;2023-03-14T01:09:54;10.68;;;3.53;;
12597;SDS011;6364;53.590;9.956;2023-03-14T01:12:19;10.73;;;3.47;;
12597;SDS011;6364;53.590;9.956;2023-03-14T01:14:44;8.13;;;2.92;;
12597;SDS011;6364;53.590;9.956;2023-03-14T01:17:10;9.25;;;2.80;;
12597;SDS011;6364;53.590;9.956;2023-03-14T01:19:35;13.93;;;3.78;;
12597;SDS011;6364;53.590;9.956;2023-03-14T01:22:00;7.95;;;3.15;;
12597;SDS011;6364;53.590;9.956;2023-03-14T01:24:26;8.23;;;3.22;;
12597;SDS011;6364;53.590;9.956;2023-03-14T01:26:51;6.88;;;2.78;;
12597;SDS011;6364;53.590;9.956;2023-03-14T01:29:16;12.88;;;3.20;;
12597;SDS011;6364;53.590;9.956;2023-03-14T01:31:42;8.20;;;3.28;;
12597;SDS011;6364;53.590;9.956;2023-03-14T01:34:07;9.13;;;2.85;;
12597;SDS011;6364;53.590;9.956;2023-03-14T01:36:32;12.18;;;2.90;;
12597;SDS011;6364;53.590;9.956;2023-03-14T01:38:57;9.68;;;3.15;;
12597;SDS011;6364;53.590;9.956;2023-03-14T01:41:24;13.23;;;3.30;;
12597;SDS011;6364;53.590;9.956;2023-03-14T01:43:50;9.82;;;3.30;;
12597;SDS011;6364;53.590;9.956;2023-03-14T01:46:20;7.53;;;2.90;;
12597;SDS011;6364;53.590;9.956;2023-03-14T01:51:28;9.80;;;3.08;;
12597;SDS011;6364;53.590;9.956;2023-03-14T01:53:59;21.13;;;3.80;;
12597;SDS011;6364;53.590;9.956;2023-03-14T01:56:28;8.82;;;2.92;;
12597;SDS011;6364;53.590;9.956;2023-03-14T01:58:53;9.70;;;2.88;;
12597;SDS011;6364;53.590;9.956;2023-03-14T02:01:20;11.25;;;3.00;;
12597;SDS011;6364;53.590;9.956;2023-03-14T02:03:50;8.05;;;3.30;;
12597;SDS011;6364;53.590;9.956;2023-03-14T02:06:19;7.57;;;3.47;;
12597;SDS011;6364;53.590;9.956;2023-03-14T02:08:48;9.20;;;3.30;;
12597;SDS011;6364;53.590;9.956;2023-03-14T02:11:14;9.00;;;3.17;;
12597;SDS011;6364;53.590;9.956;2023-03-14T02:13:40;11.48;;;3.78;;
12597;SDS011;6364;53.590;9.956;2023-03-14T02:16:05;9.80;;;3.88;;
12597;SDS011;6364;53.590;9.956;2023-03-14T02:18:31;12.55;;;3.40;;
12597;SDS011;6364;53.590;9.956;2023-03-14T02:23:56;13.15;;;3.60;;
12597;SDS011;6364;53.590;9.956;2023-03-14T02:26:38;13.45;;;3.70;;
12597;SDS011;6364;53.590;9.956;2023-03-14T02:29:23;10.93;;;3.53;;
12597;SDS011;6364;53.590;9.956;2023-03-14T02:31:49;13.25;;;3.55;;
12597;SDS011;6364;53.590;9.956;2023-03-14T02:34:14;7.57;;;3.38;;
12597;SDS011;6364;53.590;9.956;2023-03-14T02:36:40;10.32;;;3.90;;
12597;SDS011;6364;53.590;9.956;2023-03-14T02:39:14;10.65;;;3.60;;
12597;SDS011;6364;53.590;9.956;2023-03-14T02:41:42;10.63;;;3.53;;
12597;SDS011;6364;53.590;9.956;2023-03-14T02:44:10;11.82;;;3.92;;
12597;SDS011;6364;53.590;9.956;2023-03-14T02:46:35;13.30;;;4.25;;
12597;SDS011;6364;53.590;9.956;2023-03-14T02:49:01;11.65;;;3.95;;
12597;SDS011;6364;53.590;9.956;2023-03-14T02:51:28;12.52;;;4.28;;
12597;SDS011;6364;53.590;9.956;2023-03-14T02:53:53;12.77;;;4.68;;
12597;SDS011;6364;53.590;9.956;2023-03-14T02:56:19;12.98;;;3.92;;
12597;SDS011;6364;53.590;9.956;2023-03-14T02:58:44;15.50;;;4.22;;
12597;SDS011;6364;53.590;9.956;2023-03-14T03:01:09;12.25;;;4.30;;
12597;SDS011;6364;53.590;9.956;2023-03-14T03:03:35;10.73;;;4.20;;
12597;SDS011;6364;53.590;9.956;2023-03-14T03:06:00;8.43;;;3.80;;
12597;SDS011;6364;53.590;9.956;2023-03-14T03:08:26;10.95;;;4.18;;
12597;SDS011;6364;53.590;9.956;2023-03-14T03:10:52;8.10;;;3.72;;
12597;SDS011;6364;53.590;9.956;2023-03-14T03:13:18;14.02;;;4.30;;
12597;SDS011;6364;53.590;9.956;2023-03-14T03:15:43;11.57;;;4.20;;
12597;SDS011;6364;53.590;9.956;2023-03-14T03:18:09;9.32;;;3.70;;
12597;SDS011;6364;53.590;9.956;2023-03-14T03:20:34;9.65;;;3.95;;
12597;SDS011;6364;53.590;9.956;2023-03-14T03:23:00;9.43;;;4.10;;
12597;SDS011;6364;53.590;9.956;2023-03-14T03:25:25;10.60;;;3.90;;
12597;SDS011;6364;53.590;9.956;2023-03-14T03:27:51;9.93;;;3.92;;
12597;SDS011;6364;53.590;9.956;2023-03-14T03:30:17;9.25;;;3.78;;
12597;SDS011;6364;53.590;9.956;2023-03-14T03:32:42;12.02;;;4.40;;
12597;SDS011;6364;53.590;9.956;2023-03-14T03:35:08;8.75;;;3.60;;
12597;SDS011;6364;53.590;9.956;2023-03-14T03:37:34;11.95;;;3.85;;
12597;SDS011;6364;53.590;9.956;2023-03-14T03:39:59;9.13;;;3.53;;
12597;SDS011;6364;53.590;9.956;2023-03-14T03:42:28;9.10;;;4.00;;
12597;SDS011;6364;53.590;9.956;2023-03-14T03:44:54;10.05;;;2.85;;
12597;SDS011;6364;53.590;9.956;2023-03-14T03:47:19;9.15;;;3.00;;
12597;SDS011;6364;53.590;9.956;2023-03-14T03:49:44;9.75;;;3.17;;
12597;SDS011;6364;53.590;9.956;2023-03-14T03:52:09;8.40;;;3.15;;
12597;SDS011;6364;53.590;9.956;2023-03-14T03:54:35;9.27;;;3.50;;
12597;SDS011;6364;53.590;9.956;2023-03-14T03:57:00;10.10;;;3.67;;
12597;SDS011;6364;53.590;9.956;2023-03-14T03:59:26;11.85;;;3.67;;
12597;SDS011;6364;53.590;9.956;2023-03-14T04:01:51;9.13;;;3.00;;
12597;SDS011;6364;53.590;9.956;2023-03-14T04:04:16;11.80;;;3.22;;
12597;SDS011;6364;53.590;9.956;2023-03-14T04:06:42;8.65;;;3.47;;
12597;SDS011;6364;53.590;9.956;2023-03-14T04:09:08;9.82;;;3.22;;
12597;SDS011;6364;53.590;9.956;2023-03-14T04:11:34;10.82;;;3.38;;
12597;SDS011;6364;53.590;9.956;2023-03-14T04:13:59;11.65;;;3.45;;
12597;SDS011;6364;53.590;9.956;2023-03-14T04:16:25;8.38;;;3.42;;
12597;SDS011;6364;53.590;9.956;2023-03-14T04:18:51;5.75;;;3.22;;
12597;SDS011;6364;53.590;9.956;2023-03-14T04:21:16;10.10;;;3.30;;
12597;SDS011;6364;53.590;9.956;2023-03-14T04:23:42;11.43;;;3.40;;
12597;SDS011;6364;53.590;9.956;2023-03-14T04:26:07;10.20;;;3.47;;
12597;SDS011;6364;53.590;9.956;2023-03-14T04:28:33;9.93;;;4.22;;
12597;SDS011;6364;53.590;9.956;2023-03-14T04:31:05;8.20;;;3.60;;
12597;SDS011;6364;53.590;9.956;2023-03-14T04:33:33;8.93;;;3.60;;
12597;SDS011;6364;53.590;9.956;2023-03-14T04:35:59;8.77;;;4.00;;
12597;SDS011;6364;53.590;9.956;2023-03-14T04:38:24;8.65;;;4.28;;
12597;SDS011;6364;53.590;9.956;2023-03-14T04:40:49;10.10;;;4.03;;
12597;SDS011;6364;53.590;9.956;2023-03-14T04:43:15;9.02;;;3.85;;
12597;SDS011;6364;53.590;9.956;2023-03-14T04:45:41;10.15;;;3.88;;
12597;SDS011;6364;53.590;9.956;2023-03-14T04:48:07;11.18;;;4.25;;
12597;SDS011;6364;53.590;9.956;2023-03-14T04:50:32;14.80;;;4.05;;
12597;SDS011;6364;53.590;9.956;2023-03-14T04:52:57;8.48;;;3.72;;
12597;SDS011;6364;53.590;9.956;2023-03-14T04:55:22;10.82;;;4.30;;
12597;SDS011;6364;53.590;9.956;2023-03-14T04:57:48;10.18;;;3.72;;
12597;SDS011;6364;53.590;9.956;2023-03-14T05:00:13;14.90;;;3.85;;
12597;SDS011;6364;53.590;9.956;2023-03-14T05:02:38;10.70;;;3.60;;
12597;SDS011;6364;53.590;9.956;2023-03-14T05:05:04;8.73;;;2.95;;
12597;SDS011;6364;53.590;9.956;2023-03-14T05:07:29;5.10;;;2.47;;
12597;SDS011;6364;53.590;9.956;2023-03-14T05:09:55;5.90;;;2.25;;
12597;SDS011;6364;53.590;9.956;2023-03-14T05:12:20;8.20;;;2.33;;
12597;SDS011;6364;53.590;9.956;2023-03-14T05:14:46;7.57;;;2.40;;
12597;SDS011;6364;53.590;9.956;2023-03-14T05:17:11;5.68;;;2.67;;
12597;SDS011;6364;53.590;9.956;2023-03-14T05:19:39;11.10;;;2.90;;
12597;SDS011;6364;53.590;9.956;2023-03-14T05:22:04;7.45;;;3.00;;
12597;SDS011;6364;53.590;9.956;2023-03-14T05:24:30;7.40;;;2.78;;
12597;SDS011;6364;53.590;9.956;2023-03-14T05:26:55;6.35;;;2.92;;
12597;SDS011;6364;53.590;9.956;2023-03-14T05:29:20;9.38;;;2.90;;
12597;SDS011;6364;53.590;9.956;2023-03-14T05:31:46;5.35;;;2.65;;
12597;SDS011;6364;53.590;9.956;2023-03-14T05:34:11;6.63;;;3.03;;
12597;SDS011;6364;53.590;9.956;2023-03-14T05:36:36;6.60;;;3.60;;
12597;SDS011;6364;53.590;9.956;2023-03-14T05:39:03;7.10;;;3.40;;
12597;SDS011;6364;53.590;9.956;2023-03-14T05:41:28;9.40;;;3.95;;
12597;SDS011;6364;53.590;9.956;2023-03-14T05:43:54;8.20;;;4.40;;
12597;SDS011;6364;53.590;9.956;2023-03-14T05:46:19;8.02;;;4.32;;
12597;SDS011;6364;53.590;9.956;2023-03-14T05:48:44;9.35;;;4.72;;
12597;SDS011;6364;53.590;9.956;2023-03-14T05:51:10;8.20;;;4.68;;
12597;SDS011;6364;53.590;9.956;2023-03-14T05:53:35;9.70;;;5.15;;
12597;SDS011;6364;53.590;9.956;2023-03-14T05:56:00;13.43;;;5.45;;
12597;SDS011;6364;53.590;9.956;2023-03-14T05:58:25;13.20;;;5.68;;
12597;SDS011;6364;53.590;9.956;2023-03-14T06:00:51;13.35;;;6.20;;
12597;SDS011;6364;53.590;9.956;2023-03-14T06:03:16;11.02;;;5.97;;
12597;SDS011;6364;53.590;9.956;2023-03-14T06:05:41;17.40;;;6.68;;
12597;SDS011;6364;53.590;9.956;2023-03-14T06:08:07;20.00;;;7.07;;
12597;SDS011;6364;53.590;9.956;2023-03-14T06:10:32;16.08;;;7.30;;
12597;SDS011;6364;53.590;9.956;2023-03-14T06:12:59;17.05;;;8.82;;
12597;SDS011;6364;53.590;9.956;2023-03-14T06:15:25;18.70;;;7.60;;
12597;SDS011;6364;53.590;9.956;2023-03-14T06:17:50;17.73;;;8.25;;
12597;SDS011;6364;53.590;9.956;2023-03-14T06:20:15;17.88;;;8.32;;
12597;SDS011;6364;53.590;9.956;2023-03-14T06:22:41;19.40;;;8.30;;
12597;SDS011;6364;53.590;9.956;2023-03-14T06:25:07;18.80;;;8.63;;
12597;SDS011;6364;53.590;9.956;2023-03-14T06:27:33;20.98;;;8.80;;
12597;SDS011;6364;53.590;9.956;2023-03-14T06:29:58;16.42;;;8.73;;
12597;SDS011;6364;53.590;9.956;2023-03-14T06:32:24;24.65;;;9.13;;
12597;SDS011;6364;53.590;9.956;2023-03-14T06:34:49;15.27;;;7.55;;
12597;SDS011;6364;53.590;9.956;2023-03-14T06:37:14;17.75;;;8.25;;
12597;SDS011;6364;53.590;9.956;2023-03-14T06:39:40;10.90;;;7.88;;
12597;SDS011;6364;53.590;9.956;2023-03-14T06:42:05;15.90;;;8.02;;
12597;SDS011;6364;53.590;9.956;2023-03-14T06:44:30;15.48;;;7.85;;
12597;SDS011;6364;53.590;9.956;2023-03-14T06:46:56;15.27;;;7.72;;
12597;SDS011;6364;53.590;9.956;2023-03-14T06:49:21;18.75;;;8.88;;
12597;SDS011;6364;53.590;9.956;2023-03-14T06:51:47;19.02;;;8.65;;
12597;SDS011;6364;53.590;9.956;2023-03-14T06:54:12;15.00;;;7.80;;
12597;SDS011;6364;53.590;9.956;2023-03-14T06:56:37;15.85;;;7.60;;
12597;SDS011;6364;53.590;9.956;2023-03-14T06:59:03;16.35;;;7.18;;
12597;SDS011;6364;53.590;9.956;2023-03-14T07:01:29;15.93;;;6.60;;
12597;SDS011;6364;53.590;9.956;2023-03-14T07:03:55;14.77;;;6.88;;
12597;SDS011;6364;53.590;9.956;2023-03-14T07:06:21;9.02;;;5.38;;
12597;SDS011;6364;53.590;9.956;2023-03-14T07:08:47;8.38;;;4.70;;
12597;SDS011;6364;53.590;9.956;2023-03-14T07:11:12;11.52;;;4.75;;
12597;SDS011;6364;53.590;9.956;2023-03-14T07:13:38;13.93;;;4.18;;
12597;SDS011;6364;53.590;9.956;2023-03-14T07:16:04;11.25;;;4.70;;
12597;SDS011;6364;53.590;9.956;2023-03-14T07:18:30;13.30;;;4.28;;
12597;SDS011;6364;53.590;9.956;2023-03-14T07:20:55;12.05;;;3.58;;
12597;SDS011;6364;53.590;9.956;2023-03-14T07:23:20;8.85;;;2.58;;
12597;SDS011;6364;53.590;9.956;2023-03-14T07:25:46;7.43;;;2.45;;
12597;SDS011;6364;53.590;9.956;2023-03-14T07:28:11;9.73;;;2.97;;
12597;SDS011;6364;53.590;9.956;2023-03-14T07:30:36;10.60;;;3.00;;
12597;SDS011;6364;53.590;9.956;2023-03-14T07:33:02;12.68;;;2.80;;
12597;SDS011;6364;53.590;9.956;2023-03-14T07:35:27;5.97;;;2.20;;
12597;SDS011;6364;53.590;9.956;2023-03-14T07:37:52;8.40;;;2.47;;
12597;SDS011;6364;53.590;9.956;2023-03-14T07:40:18;9.65;;;2.92;;
12597;SDS011;6364;53.590;9.956;2023-03-14T07:42:43;6.70;;;2.65;;
12597;SDS011;6364;53.590;9.956;2023-03-14T07:45:09;13.27;;;3.03;;
12597;SDS011;6364;53.590;9.956;2023-03-14T07:47:35;9.90;;;3.22;;
12597;SDS011;6364;53.590;9.956;2023-03-14T07:50:00;7.03;;;3.30;;
12597;SDS011;6364;53.590;9.956;2023-03-14T07:52:26;11.40;;;3.20;;
12597;SDS011;6364;53.590;9.956;2023-03-14T07:54:51;8.63;;;2.97;;
12597;SDS011;6364;53.590;9.956;2023-03-14T07:57:17;7.95;;;2.78;;
12597;SDS011;6364;53.590;9.956;2023-03-14T07:59:42;7.75;;;3.22;;
12597;SDS011;6364;53.590;9.956;2023-03-14T08:02:09;6.72;;;2.75;;
12597;SDS011;6364;53.590;9.956;2023-03-14T08:04:36;8.65;;;2.65;;
12597;SDS011;6364;53.590;9.956;2023-03-14T08:07:02;3.88;;;2.08;;
12597;SDS011;6364;53.590;9.956;2023-03-14T08:09:28;5.38;;;2.17;;
12597;SDS011;6364;53.590;9.956;2023-03-14T08:11:53;4.75;;;2.35;;
12597;SDS011;6364;53.590;9.956;2023-03-14T08:14:18;5.13;;;2.30;;
12597;SDS011;6364;53.590;9.956;2023-03-14T08:16:43;7.78;;;2.28;;
12597;SDS011;6364;53.590;9.956;2023-03-14T08:19:09;4.80;;;2.03;;
12597;SDS011;6364;53.590;9.956;2023-03-14T08:21:34;6.65;;;2.38;;
12597;SDS011;6364;53.590;9.956;2023-03-14T08:23:59;5.25;;;2.13;;
12597;SDS011;6364;53.590;9.956;2023-03-14T08:26:25;3.72;;;1.73;;
12597;SDS011;6364;53.590;9.956;2023-03-14T08:28:51;5.20;;;1.90;;
12597;SDS011;6364;53.590;9.956;2023-03-14T08:31:16;6.70;;;2.05;;
12597;SDS011;6364;53.590;9.956;2023-03-14T08:33:41;6.95;;;2.55;;
12597;SDS011;6364;53.590;9.956;2023-03-14T08:36:07;6.72;;;2.20;;
12597;SDS011;6364;53.590;9.956;2023-03-14T08:38:32;8.50;;;1.95;;
12597;SDS011;6364;53.590;9.956;2023-03-14T08:40:58;6.10;;;2.10;;
12597;SDS011;6364;53.590;9.956;2023-03-14T08:43:24;6.95;;;2.30;;
12597;SDS011;6364;53.590;9.956;2023-03-14T08:45:49;10.00;;;3.00;;
12597;SDS011;6364;53.590;9.956;2023-03-14T08:48:14;7.68;;;2.80;;
12597;SDS011;6364;53.590;9.956;2023-03-14T08:50:40;10.48;;;3.22;;
12597;SDS011;6364;53.590;9.956;2023-03-14T08:53:05;9.25;;;2.70;;
12597;SDS011;6364;53.590;9.956;2023-03-14T08:55:30;9.45;;;3.67;;
12597;SDS011;6364;53.590;9.956;2023-03-14T08:57:56;8.57;;;3.60;;
12597;SDS011;6364;53.590;9.956;2023-03-14T09:00:21;10.48;;;3.83;;
12597;SDS011;6364;53.590;9.956;2023-03-14T09:02:46;12.70;;;4.50;;
12597;SDS011;6364;53.590;9.956;2023-03-14T09:05:12;9.23;;;3.88;;
12597;SDS011;6364;53.590;9.956;2023-03-14T09:07:37;11.63;;;4.25;;
12597;SDS011;6364;53.590;9.956;2023-03-14T09:10:03;9.00;;;4.38;;
12597;SDS011;6364;53.590;9.956;2023-03-14T09:12:29;14.40;;;4.72;;
12597;SDS011;6364;53.590;9.956;2023-03-14T09:14:55;13.02;;;4.40;;
12597;SDS011;6364;53.590;9.956;2023-03-14T09:17:20;11.85;;;4.55;;
12597;SDS011;6364;53.590;9.956;2023-03-14T09:19:46;10.30;;;4.45;;
12597;SDS011;6364;53.590;9.956;2023-03-14T09:22:11;11.75;;;4.75;;
12597;SDS011;6364;53.590;9.956;2023-03-14T09:24:36;16.60;;;4.93;;
12597;SDS011;6364;53.590;9.956;2023-03-14T09:27:02;14.68;;;4.53;;
12597;SDS011;6364;53.590;9.956;2023-03-14T09:29:27;13.13;;;4.80;;
12597;SDS011;6364;53.590;9.956;2023-03-14T09:31:53;13.38;;;5.35;;
12597;SDS011;6364;53.590;9.956;2023-03-14T09:34:18;15.45;;;4.95;;
12597;SDS011;6364;53.590;9.956;2023-03-14T09:36:44;10.73;;;4.90;;
12597;SDS011;6364;53.590;9.956;2023-03-14T09:39:10;11.55;;;5.47;;
12597;SDS011;6364;53.590;9.956;2023-03-14T09:41:37;11.98;;;4.20;;
12597;SDS011;6364;53.590;9.956;2023-03-14T09:46:52;14.05;;;4.70;;
12597;SDS011;6364;53.590;9.956;2023-03-14T09:49:24;12.95;;;4.90;;
12597;SDS011;6364;53.590;9.956;2023-03-14T09:51:52;9.38;;;3.15;;
12597;SDS011;6364;53.590;9.956;2023-03-14T09:54:24;4.78;;;1.50;;
12597;SDS011;6364;53.590;9.956;2023-03-14T09:56:55;6.38;;;1.42;;
12597;SDS011;6364;53.590;9.956;2023-03-14T09:59:20;3.63;;;1.50;;
12597;SDS011;6364;53.590;9.956;2023-03-14T10:01:46;2.75;;;1.50;;
12597;SDS011;6364;53.590;9.956;2023-03-14T10:04:12;4.82;;;1.40;;
12597;SDS011;6364;53.590;9.956;2023-03-14T10:06:40;4.75;;;1.40;;
12597;SDS011;6364;53.590;9.956;2023-03-14T10:09:08;3.72;;;1.23;;
12597;SDS011;6364;53.590;9.956;2023-03-14T10:11:39;5.15;;;1.40;;
12597;SDS011;6364;53.590;9.956;2023-03-14T10:14:05;2.78;;;1.10;;
12597;SDS011;6364;53.590;9.956;2023-03-14T10:16:34;3.85;;;1.48;;
12597;SDS011;6364;53.590;9.956;2023-03-14T10:19:03;4.47;;;1.50;;
12597;SDS011;6364;53.590;9.956;2023-03-14T10:21:30;4.82;;;1.40;;
12597;SDS011;6364;53.590;9.956;2023-03-14T10:24:08;2.90;;;1.35;;
12597;SDS011;6364;53.590;9.956;2023-03-14T10:26:33;4.72;;;1.30;;
12597;SDS011;6364;53.590;9.956;2023-03-14T10:29:10;1.42;;;0.80;;
12597;SDS011;6364;53.590;9.956;2023-03-14T10:31:45;1.52;;;0.75;;
12597;SDS011;6364;53.590;9.956;2023-03-14T10:34:15;1.27;;;0.80;;
12597;SDS011;6364;53.590;9.956;2023-03-14T10:36:42;1.15;;;0.60;;
12597;SDS011;6364;53.590;9.956;2023-03-14T10:41:54;2.70;;;0.80;;
12597;SDS011;6364;53.590;9.956;2023-03-14T10:44:23;1.58;;;0.52;;
12597;SDS011;6364;53.590;9.956;2023-03-14T10:46:57;1.60;;;0.55;;
12597;SDS011;6364;53.590;9.956;2023-03-14T10:49:26;1.83;;;0.70;;
12597;SDS011;6364;53.590;9.956;2023-03-14T10:51:53;1.50;;;0.52;;
12597;SDS011;6364;53.590;9.956;2023-03-14T10:54:19;0.77;;;0.50;;
12597;SDS011;6364;53.590;9.956;2023-03-14T10:56:47;0.77;;;0.40;;
12597;SDS011;6364;53.590;9.956;2023-03-14T10:59:21;1.15;;;0.70;;
12597;SDS011;6364;53.590;9.956;2023-03-14T11:01:48;0.57;;;0.50;;
12597;SDS011;6364;53.590;9.956;2023-03-14T11:31:45;2.78;;;0.93;;
12597;SDS011;6364;53.590;9.956;2023-03-14T11:37:04;2.92;;;0.55;;
12597;SDS011;6364;53.590;9.956;2023-03-14T11:39:41;3.35;;;0.82;;
12597;SDS011;6364;53.590;9.956;2023-03-14T11:42:15;3.40;;;0.63;;
12597;SDS011;6364;53.590;9.956;2023-03-14T11:44:41;6.10;;;1.30;;
12597;SDS011;6364;53.590;9.956;2023-03-14T11:52:06;4.53;;;0.70;;
12597;SDS011;6364;53.590;9.956;2023-03-14T11:54:39;8.40;;;1.27;;
12597;SDS011;6364;53.590;9.956;2023-03-14T11:57:21;5.35;;;1.10;;
12597;SDS011;6364;53.590;9.956;2023-03-14T12:05:27;5.90;;;1.17;;
12597;SDS011;6364;53.590;9.956;2023-03-14T12:10:41;9.30;;;1.38;;
12597;SDS011;6364;53.590;9.956;2023-03-14T12:13:10;14.82;;;1.95;;
12597;SDS011;6364;53.590;9.956;2023-03-14T12:15:47;8.98;;;1.75;;
12597;SDS011;6364;53.590;9.956;2023-03-14T12:18:19;8.55;;;1.83;;
12597;SDS011;6364;53.590;9.956;2023-03-14T12:20:59;8.25;;;1.48;;
12597;SDS011;6364;53.590;9.956;2023-03-14T12:23:26;8.25;;;1.65;;
12597;SDS011;6364;53.590;9.956;2023-03-14T12:26:12;12.05;;;1.88;;
12597;SDS011;6364;53.590;9.956;2023-03-14T12:28:44;11.57;;;1.48;;
12597;SDS011;6364;53.590;9.956;2023-03-14T12:39:20;10.60;;;1.50;;
12597;SDS011;6364;53.590;9.956;2023-03-14T12:42:02;10.25;;;2.20;;
12597;SDS011;6364;53.590;9.956;2023-03-14T12:49:47;10.98;;;1.67;;
12597;SDS011;6364;53.590;9.956;2023-03-14T12:52:15;10.13;;;1.75;;
12597;SDS011;6364;53.590;9.956;2023-03-14T12:54:47;9.75;;;2.42;;
12597;SDS011;6364;53.590;9.956;2023-03-14T12:57:47;7.75;;;1.67;;
12597;SDS011;6364;53.590;9.956;2023-03-14T13:00:20;16.42;;;2.25;;
12597;SDS011;6364;53.590;9.956;2023-03-14T13:02:47;13.65;;;2.88;;
12597;SDS011;6364;53.590;9.956;2023-03-14T13:05:16;8.80;;;2.45;;
12597;SDS011;6364;53.590;9.956;2023-03-14T13:15:32;16.90;;;2.30;;
12597;SDS011;6364;53.590;9.956;2023-03-14T13:18:03;18.95;;;2.58;;
12597;SDS011;6364;53.590;9.956;2023-03-14T13:20:45;14.07;;;2.50;;
12597;SDS011;6364;53.590;9.956;2023-03-14T13:23:21;18.70;;;2.85;;
12597;SDS011;6364;53.590;9.956;2023-03-14T13:25:48;14.95;;;2.40;;
12597;SDS011;6364;53.590;9.956;2023-03-14T13:28:13;12.48;;;2.75;;
12597;SDS011;6364;53.590;9.956;2023-03-14T13:30:40;13.23;;;1.73;;
12597;SDS011;6364;53.590;9.956;2023-03-14T13:33:11;6.90;;;1.55;;
12597;SDS011;6364;53.590;9.956;2023-03-14T13:35:39;16.25;;;2.38;;
12597;SDS011;6364;53.590;9.956;2023-03-14T13:38:13;8.63;;;2.25;;
12597;SDS011;6364;53.590;9.956;2023-03-14T13:40:41;7.30;;;1.70;;
12597;SDS011;6364;53.590;9.956;2023-03-14T13:43:15;11.38;;;1.95;;
12597;SDS011;6364;53.590;9.956;2023-03-14T13:45:43;13.23;;;2.30;;
12597;SDS011;6364;53.590;9.956;2023-03-14T13:48:16;7.30;;;1.83;;
12597;SDS011;6364;53.590;9.956;2023-03-14T13:50:46;9.88;;;1.80;;
12597;SDS011;6364;53.590;9.956;2023-03-14T13:53:14;10.30;;;1.83;;
12597;SDS011;6364;53.590;9.956;2023-03-14T13:55:40;9.25;;;1.95;;
12597;SDS011;6364;53.590;9.956;2023-03-14T13:58:10;16.95;;;2.22;;
12597;SDS011;6364;53.590;9.956;2023-03-14T14:00:38;16.80;;;1.97;;
12597;SDS011;6364;53.590;9.956;2023-03-14T14:03:04;11.27;;;1.83;;
12597;SDS011;6364;53.590;9.956;2023-03-14T14:05:35;13.77;;;2.17;;
12597;SDS011;6364;53.590;9.956;2023-03-14T14:08:02;12.07;;;1.55;;
12597;SDS011;6364;53.590;9.956;2023-03-14T14:10:29;14.55;;;2.40;;
12597;SDS011;6364;53.590;9.956;2023-03-14T14:12:59;11.68;;;2.08;;
12597;SDS011;6364;53.590;9.956;2023-03-14T14:15:27;9.30;;;2.55;;
12597;SDS011;6364;53.590;9.956;2023-03-14T14:20:39;12.43;;;1.88;;
12597;SDS011;6364;53.590;9.956;2023-03-14T14:23:08;11.23;;;1.60;;
12597;SDS011;6364;53.590;9.956;2023-03-14T14:25:36;11.70;;;2.20;;
12597;SDS011;6364;53.590;9.956;2023-03-14T14:28:14;9.77;;;2.13;;
12597;SDS011;6364;53.590;9.956;2023-03-14T14:30:40;11.90;;;1.85;;
12597;SDS011;6364;53.590;9.956;2023-03-14T14:33:19;10.73;;;2.03;;
12597;SDS011;6364;53.590;9.956;2023-03-14T14:35:50;9.60;;;2.08;;
12597;SDS011;6364;53.590;9.956;2023-03-14T14:38:16;9.43;;;2.92;;
12597;SDS011;6364;53.590;9.956;2023-03-14T14:40:46;9.00;;;1.80;;
12597;SDS011;6364;53.590;9.956;2023-03-14T14:43:17;9.60;;;1.63;;
12597;SDS011;6364;53.590;9.956;2023-03-14T14:45:47;13.18;;;1.65;;
12597;SDS011;6364;53.590;9.956;2023-03-14T14:48:14;13.48;;;2.03;;
12597;SDS011;6364;53.590;9.956;2023-03-14T14:53:21;13.93;;;1.80;;
12597;SDS011;6364;53.590;9.956;2023-03-14T14:55:49;7.43;;;1.65;;
12597;SDS011;6364;53.590;9.956;2023-03-14T14:58:23;7.13;;;1.40;;
12597;SDS011;6364;53.590;9.956;2023-03-14T15:00:50;10.88;;;1.70;;
12597;SDS011;6364;53.590;9.956;2023-03-14T15:03:30;7.95;;;2.13;;
12597;SDS011;6364;53.590;9.956;2023-03-14T15:05:57;6.30;;;1.27;;
12597;SDS011;6364;53.590;9.956;2023-03-14T15:08:23;10.55;;;2.08;;
12597;SDS011;6364;53.590;9.956;2023-03-14T15:10:49;13.85;;;2.33;;
12597;SDS011;6364;53.590;9.956;2023-03-14T15:13:15;7.70;;;1.92;;
12597;SDS011;6364;53.590;9.956;2023-03-14T15:15:40;12.07;;;2.03;;
12597;SDS011;6364;53.590;9.956;2023-03-14T15:18:16;14.65;;;2.13;;
12597;SDS011;6364;53.590;9.956;2023-03-14T15:20:43;11.38;;;1.85;;
12597;SDS011;6364;53.590;9.956;2023-03-14T15:23:09;14.55;;;2.63;;
12597;SDS011;6364;53.590;9.956;2023-03-14T15:25:39;9.05;;;2.20;;
12597;SDS011;6364;53.590;9.956;2023-03-14T15:28:12;13.32;;;1.80;;
12597;SDS011;6364;53.590;9.956;2023-03-14T15:30:40;15.77;;;2.13;;
12597;SDS011;6364;53.590;9.956;2023-03-14T15:33:05;14.68;;;2.60;;
12597;SDS011;6364;53.590;9.956;2023-03-14T15:35:33;9.80;;;2.05;;
12597;SDS011;6364;53.590;9.956;2023-03-14T15:37:59;8.25;;;1.88;;
12597;SDS011;6364;53.590;9.956;2023-03-14T15:40:24;11.95;;;2.10;;
12597;SDS011;6364;53.590;9.956;2023-03-14T15:42:50;17.13;;;2.00;;
12597;SDS011;6364;53.590;9.956;2023-03-14T15:45:15;11.77;;;1.90;;
12597;SDS011;6364;53.590;9.956;2023-03-14T15:47:40;8.30;;;1.50;;
12597;SDS011;6364;53.590;9.956;2023-03-14T15:50:05;13.77;;;1.48;;
12597;SDS011;6364;53.590;9.956;2023-03-14T15:52:34;11.23;;;1.73;;
12597;SDS011;6364;53.590;9.956;2023-03-14T15:54:59;13.35;;;2.10;;
12597;SDS011;6364;53.590;9.956;2023-03-14T15:57:25;6.32;;;1.40;;
12597;SDS011;6364;53.590;9.956;2023-03-14T15:59:50;8.82;;;1.88;;
12597;SDS011;6364;53.590;9.956;2023-03-14T16:02:15;8.75;;;1.70;;
12597;SDS011;6364;53.590;9.956;2023-03-14T16:04:41;6.50;;;1.85;;
12597;SDS011;6364;53.590;9.956;2023-03-14T16:07:06;16.08;;;1.92;;
12597;SDS011;6364;53.590;9.956;2023-03-14T16:09:32;8.13;;;1.85;;
12597;SDS011;6364;53.590;9.956;2023-03-14T16:11:57;12.00;;;2.10;;
12597;SDS011;6364;53.590;9.956;2023-03-14T16:14:22;15.10;;;2.28;;
12597;SDS011;6364;53.590;9.956;2023-03-14T16:16:48;14.75;;;1.80;;